• Join FlightAware (Why Join?)
  • Login
  • US Flag 
11:03AM EDT


 

Airport Tracker/Info


-or-


 

Live Flight TrackerFlight Track Log ✈ ACA831 ✈ 02-May-2013 ✈ LSGG / GVA - CYUL

Flight Track Log - Related Links

Times and Time Zones

All times are in EDT time to prevent confusion due to time zone crossing. See the ACA831 flight status page for this flight to view local times or setup timezone preferences in your user account.

Time Position Orientation Groundspeed Altitude Reporting Facility
EDT Latitude Longitude Course Direction KTS MPH feet Rate Location/Type
06:25AM 46.2480 6.1260 45° Northeast 162 186 2,400  Level FlightAware
06:25AM 46.2550 6.1360 45° Northeast 167 192 2,900 2,280 Climbing FlightAware
06:26AM 46.2810 6.1760 47° Northeast 181 208 4,700 2,100 Climbing FlightAware
06:26AM 46.2910 6.1900 44° Northeast 202 232 5,000 1,500 Climbing FlightAware
06:27AM 46.3200 6.2330 46° Northeast 247 284 6,100 1,980 Climbing FlightAware
06:27AM 46.3390 6.2610 45° Northeast 273 314 7,000 2,820 Climbing FlightAware
06:27AM 46.3700 6.3080 46° Northeast 287 330 8,700 2,700 Climbing FlightAware
06:28AM 46.4140 6.3310 20° North 303 349 10,200 2,280 Climbing FlightAware
06:28AM 46.4410 6.3260 353° North 321 369 10,800 2,640 Climbing FlightAware
06:29AM 46.4820 6.3110 346° North 323 372 12,400 3,060 Climbing FlightAware
06:29AM 46.5300 6.3070 357° North 333 383 13,900 1,860 Climbing FlightAware
06:30AM 46.6230 6.2970 356° North 387 445 15,100 1,980 Climbing FlightAware
06:31AM 46.7230 6.2870 356° North 397 457 17,600 2,880 Climbing FlightAware
06:32AM 46.7850 6.2900 North 403 464 19,000 2,820 Climbing FlightAware
06:32AM 46.8700 6.2950 North 418 481 20,900 2,460 Climbing FlightAware
06:33AM 46.9280 6.2980 North 415 478 22,100 1,860 Climbing FlightAware
06:34AM 47.0210 6.2910 357° North 429 494 23,400 1,320 Climbing FlightAware
06:34AM 47.0890 6.2460 336° Northwest 437 503 24,000 780 Climbing FlightAware
06:35AM 47.1300 6.1820 313° West 434 499 24,200 900 Climbing FlightAware
06:35AM 47.1720 6.0820 302° West 453 521 25,000 1,440 Climbing FlightAware
06:36AM 47.2210 5.9690 303° West 463 533 26,300 1,740 Climbing FlightAware
06:37AM 47.2670 5.8600 302° West 471 542 27,500 1,980 Climbing FlightAware
06:37AM 47.3130 5.7490 301° West 472 543 29,000 2,160 Climbing FlightAware
06:38AM 47.3580 5.6420 302° West 468 539 30,400 1,920 Climbing FlightAware
06:39AM 47.4100 5.5190 302° West 468 539 31,800 1,080 Climbing FlightAware
06:40AM 47.4560 5.4080 302° West 471 542 32,000 120 Climbing FlightAware
06:40AM 47.5050 5.2890 301° West 465 535 32,000  Level FlightAware
06:41AM 47.5500 5.1820 302° West 460 529 32,000  Level FlightAware
06:42AM 47.5910 5.0830 302° West 459 528 32,000  Level FlightAware
06:42AM 47.6440 4.9510 301° West 458 527 32,000  Level FlightAware
06:43AM 47.6900 4.8400 302° West 458 527 32,000  Level FlightAware
06:44AM 47.7370 4.7240 301° West 457 526 32,000  Level FlightAware
06:44AM 47.7780 4.6240 301° West 456 525 32,000  Level FlightAware
06:45AM 47.8310 4.4930 301° West 456 525 32,000  Level FlightAware
06:46AM 47.8700 4.3940 300° West 457 526 32,000  Level FlightAware
06:47AM 47.9190 4.2720 301° West 459 528 32,000  Level FlightAware
06:47AM 47.9630 4.1650 302° West 462 532 32,000  Level FlightAware
06:48AM 48.0090 4.0490 301° West 464 534 32,000  Level FlightAware
06:49AM 48.0520 3.9400 301° West 466 536 32,000  Level FlightAware
06:49AM 48.0980 3.8250 301° West 468 539 32,000  Level FlightAware
06:50AM 48.1450 3.7050 300° West 470 541 32,000  Level FlightAware
06:51AM 48.1910 3.5880 301° West 472 543 32,000  Level FlightAware
06:51AM 48.2400 3.4620 300° West 474 545 32,000  Level FlightAware
06:52AM 48.2910 3.3290 300° West 475 547 32,000  Level FlightAware
06:53AM 48.3350 3.2150 300° West 475 547 32,000  Level FlightAware
06:54AM 48.3798 3.0981 300° West 473 544 32,000  Level FlightAware ADS-B
06:54AM 48.4068 3.0240 299° West 469 540 32,000  Level FlightAware ADS-B
06:55AM 48.4379 2.8578 286° West 468 539 32,000  Level FlightAware ADS-B
06:55AM 48.4416 2.8331 283° West 457 526 32,000  Level FlightAware ADS-B
06:56AM 48.4566 2.7399 284° West 457 526 32,000  Level FlightAware ADS-B
06:56AM 48.4820 2.5940 285° West 457 526 32,000  Level FlightAware
06:56AM 48.4875 2.5628 285° West 458 527 32,000  Level FlightAware ADS-B
06:57AM 48.5043 2.4697 285° West 458 527 32,000  Level FlightAware ADS-B
06:58AM 48.5294 2.3287 285° West 460 529 32,000  Level FlightAware ADS-B
06:58AM 48.5463 2.2311 285° West 460 529 32,000  Level FlightAware ADS-B
06:59AM 48.5734 2.0610 284° West 460 529 32,000 -1,260 Level FlightAware ADS-B
06:59AM 48.5842 1.9785 284° West 444 511 30,500  Descending FlightAware UK
07:00AM 48.5915 1.9406 284° West 463 533 32,000  Climbing FlightAware ADS-B
07:00AM 48.5992 1.8645 284° West 446 513 30,500  Descending FlightAware UK
07:00AM 48.6058 1.8435 284° West 464 534 32,000  Climbing FlightAware ADS-B
07:01AM 48.6186 1.7308 284° West 446 513 30,500  Descending FlightAware UK
07:01AM 48.6217 1.7353 284° West 465 535 32,000  Climbing FlightAware ADS-B
07:01AM 48.6298 1.6553 284° West 448 516 30,500  Descending FlightAware UK
07:02AM 48.6390 1.6140 284° West 468 539 32,000 3,060 Climbing FlightAware
07:02AM 48.6428 1.5904 284° West 467 537 32,000 -2,820 Level FlightAware ADS-B
07:02AM 48.6547 1.4826 284° West 450 518 30,500 -1,860 Descending FlightAware UK
07:02AM 48.6659 1.4057 282° West 450 518 30,500  Level FlightAware UK
07:03AM 48.6743 1.3479 282° West 450 518 30,500 3,060 Level FlightAware UK
07:03AM 48.6790 1.3500 282° West 469 540 32,000  Climbing FlightAware
07:03AM 48.6907 1.2320 282° West 452 520 30,500  Descending FlightAware UK
07:04AM 48.6980 1.2190 282° West 469 540 32,000  Climbing FlightAware
07:04AM 48.7046 1.1354 282° West 450 518 30,500 -2,760 Descending FlightAware UK
07:04AM 48.7130 1.0777 282° West 450 518 30,500 4,500 Level FlightAware UK
07:04AM 48.7150 1.1030 282° West 469 540 32,000  Climbing FlightAware
07:04AM 48.7211 1.0206 282° West 452 520 30,500  Descending FlightAware UK
07:05AM 48.7360 0.9560 282° West 468 539 32,000  Climbing FlightAware
07:05AM 48.7486 0.8289 282° West 454 522 30,500  Descending FlightAware UK
07:06AM 48.7550 0.8270 282° West 465 535 32,000  Climbing FlightAware
07:06AM 48.7623 0.7333 282° West 454 522 30,500 -2,700 Descending FlightAware UK
07:06AM 48.7704 0.6760 282° West 454 522 30,500 3,060 Level FlightAware UK
07:06AM 48.7750 0.6840 282° West 463 533 32,000  Climbing FlightAware
07:07AM 48.7835 0.5806 282° West 456 525 30,500  Descending FlightAware UK
07:07AM 48.7950 0.5570 282° West 461 531 32,000  Climbing FlightAware
07:08AM 48.8119 0.4126 282° West 450 518 30,500  Descending FlightAware UK
07:08AM 48.8180 0.4270 282° West 460 529 32,000  Climbing FlightAware
07:08AM 48.8253 0.3397 282° West 448 516 30,500  Descending FlightAware UK
07:08AM 48.8410 0.3000 282° West 459 528 32,000 1,320 Climbing FlightAware
07:09AM 48.8650 0.1660 285° West 458 527 32,000 -1,500 Level FlightAware
07:09AM 48.8730 0.0800 285° West 450 518 30,500  Descending FlightAware UK
07:10AM 48.8920 0.0270 285° West 457 526 32,000 1,380 Climbing FlightAware
07:11AM 48.9130 -0.0870 286° West 457 526 32,000 -1,680 Level FlightAware
07:11AM 48.9200 -0.1791 286° West 450 518 30,500 120 Descending FlightAware UK
07:11AM 48.9380 -0.2230 286° West 455 524 32,100 300 Climbing FlightAware
07:12AM 48.9500 -0.3452 286° West 444 511 30,800 360 Descending FlightAware UK
07:12AM 48.9620 -0.3560 286° West 453 521 32,400 480 Climbing FlightAware
07:12AM 48.9698 -0.4550 286° West 448 516 31,100 480 Descending FlightAware UK
07:13AM 48.9810 -0.4640 286° West 455 524 32,700 480 Climbing FlightAware
07:13AM 48.9956 -0.6025 286° West 454 522 31,500 420 Descending FlightAware UK
07:13AM 49.0030 -0.5850 286° West 456 525 33,000 -240 Climbing FlightAware
07:14AM 49.0117 -0.6952 286° West 454 522 31,400  Descending FlightAware UK
07:14AM 49.0300 -0.7430 286° West 450 518 33,000 60 Climbing FlightAware
07:15AM 49.0403 -0.8595 286° West 444 511 31,500  Descending FlightAware UK
07:15AM 49.0480 -0.8430 286° West 448 516 33,000  Climbing FlightAware
07:15AM 49.0622 -0.9866 286° West 448 516 31,500  Descending FlightAware UK
07:15AM 49.0730 -0.9860 286° West 446 513 33,000  Climbing FlightAware
07:16AM 49.0779 -1.0773 286° West 448 516 31,500 -2,220 Descending FlightAware UK
07:16AM 49.0904 -1.1490 285° West 446 513 31,500 3,300 Level FlightAware UK
07:16AM 49.0980 -1.1280 285° West 444 511 33,000  Climbing FlightAware
07:17AM 49.1031 -1.2215 285° West 446 513 31,500  Descending FlightAware UK
07:17AM 49.1160 -1.2310 285° West 442 509 33,000 1,380 Climbing FlightAware
07:18AM 49.1400 -1.3700 285° West 442 509 33,000  Level FlightAware
07:18AM 49.1620 -1.4990 285° West 442 509 33,000  Level FlightAware
07:19AM 49.1810 -1.6130 284° West 441 507 33,000 -1,620 Level FlightAware
07:19AM 49.1864 -1.7073 284° West 448 516 31,500  Descending FlightAware UK
07:20AM 49.2090 -1.7800 284° West 440 506 33,000  Climbing FlightAware
07:20AM 49.2132 -1.8697 284° West 450 518 31,500 -2,520 Descending FlightAware UK
07:20AM 49.2220 -1.9233 284° West 448 516 31,600 4,200 Climbing FlightAware UK
07:21AM 49.2300 -1.9090 284° West 437 503 33,200 540 Climbing FlightAware
07:21AM 49.2427 -2.0494 284° West 446 513 32,000 -1,260 Descending FlightAware UK
07:21AM 49.2509 -2.1031 283° West 444 511 32,100 480 Climbing FlightAware UK
07:22AM 49.2591 -2.1565 283° West 442 509 32,300 3,480 Climbing FlightAware UK
07:22AM 49.2700 -2.1600 283° West 434 499 33,900 240 Climbing FlightAware
07:22AM 49.2796 -2.2795 283° West 446 513 32,500 120 Descending FlightAware UK
07:23AM 49.2870 -2.2620 283° West 435 501 34,000 -180 Climbing FlightAware
07:23AM 49.2997 -2.4048 283° West 448 516 32,400  Descending FlightAware UK
07:23AM 49.3080 -2.3940 283° West 438 504 34,000 120 Climbing FlightAware
07:24AM 49.3193 -2.5303 283° West 448 516 32,500  Descending FlightAware UK
07:24AM 49.3240 -2.4960 283° West 440 506 34,000  Climbing FlightAware
07:24AM 49.3334 -2.6210 283° West 450 518 32,500 -1,920 Descending FlightAware UK
07:25AM 49.3477 -2.7118 284° West 450 518 32,500 2,340 Level FlightAware UK
07:25AM 49.3530 -2.6820 284° West 440 506 34,000 1,500 Climbing FlightAware
07:26AM 49.3760 -2.8300 283° West 441 507 34,000 -1,320 Level FlightAware
07:26AM 49.3849 -2.9467 283° West 452 520 32,500  Descending FlightAware UK
07:26AM 49.3850 -2.8880 283° West 440 506 34,000  Climbing FlightAware
07:27AM 49.4019 -3.0547 283° West 450 518 32,500  Descending FlightAware UK
07:27AM 49.4170 -3.0920 283° West 440 506 34,000  Climbing FlightAware
07:27AM 49.4217 -3.1813 283° West 452 520 32,500 -2,520 Descending FlightAware UK
07:28AM 49.4301 -3.2355 284° West 454 522 32,500 3,300 Level FlightAware UK
07:28AM 49.4380 -3.2280 284° West 439 505 34,000 1,800 Climbing FlightAware
07:29AM 49.4550 -3.3470 282° West 437 503 34,000 -1,440 Level FlightAware
07:29AM 49.4626 -3.4517 282° West 450 518 32,500  Descending FlightAware UK
07:29AM 49.4760 -3.4850 282° West 436 502 34,000  Climbing FlightAware
07:30AM 49.4814 -3.5778 282° West 448 516 32,500  Descending FlightAware UK
07:30AM 49.4940 -3.6060 282° West 436 502 34,000 1,500 Climbing FlightAware
07:31AM 49.5110 -3.7240 283° West 435 501 34,000 -1,560 Level FlightAware
07:31AM 49.5159 -3.8109 283° West 450 518 32,500 -2,160 Descending FlightAware UK
07:31AM 49.5264 -3.8827 283° West 450 518 32,500 3,300 Level FlightAware UK
07:31AM 49.5310 -3.8620 283° West 433 498 34,000  Climbing FlightAware
07:32AM 49.5418 -3.9903 283° West 450 518 32,500  Descending FlightAware UK
07:32AM 49.5470 -3.9800 283° West 432 497 34,000  Climbing FlightAware
07:33AM 49.5573 -4.0976 283° West 450 518 32,500  Descending FlightAware UK
07:33AM 49.5650 -4.1020 283° West 431 496 34,000  Climbing FlightAware
07:33AM 49.5797 -4.2573 283° West 450 518 32,500  Descending FlightAware UK
07:33AM 49.5820 -4.2260 283° West 429 494 34,000  Climbing FlightAware
07:34AM 49.6033 -4.3599 283° West 448 516 32,500  Descending FlightAware UK
07:34AM 49.6090 -4.3490 283° West 428 493 34,000  Climbing FlightAware
07:35AM 49.6522 -4.4845 283° West 448 516 32,500  Descending FlightAware UK
07:35AM 49.6560 -4.4680 283° West 427 491 34,000 2,040 Climbing FlightAware
07:36AM 49.6980 -4.5710 302° West 426 490 34,000 -1,620 Level FlightAware
07:36AM 49.7162 -4.6372 302° West 450 518 32,500  Descending FlightAware UK
07:36AM 49.7390 -4.6720 302° West 425 489 34,000  Climbing FlightAware
07:37AM 49.7666 -4.7599 302° West 446 513 32,500 -2,160 Descending FlightAware UK
07:37AM 49.7852 -4.8061 302° West 446 513 32,500 4,260 Level FlightAware UK
07:37AM 49.7860 -4.7890 302° West 424 488 34,000  Climbing FlightAware
07:37AM 49.8037 -4.8523 302° West 446 513 32,500 -2,760 Descending FlightAware UK
07:38AM 49.8222 -4.8984 302° West 444 511 32,500 3,600 Level FlightAware UK
07:38AM 49.8270 -4.8940 302° West 424 488 34,000  Climbing FlightAware
07:38AM 49.8592 -4.9902 302° West 442 509 32,500  Descending FlightAware UK
07:38AM 49.8730 -5.0090 302° West 425 489 34,000  Climbing FlightAware
07:39AM 49.9025 -5.0985 302° West 444 511 32,500  Descending FlightAware UK
07:39AM 49.9130 -5.1100 302° West 427 491 34,000  Climbing FlightAware
07:39AM 49.9397 -5.1918 302° West 446 513 32,500 -2,280 Descending FlightAware UK
07:40AM 49.9583 -5.2388 302° West 446 513 32,500 4,980 Level FlightAware UK
07:40AM 49.9550 -5.2180 302° West 428 493 34,000  Climbing FlightAware
07:40AM 49.9769 -5.2860 302° West 448 516 32,500 -2,520 Descending FlightAware UK
07:40AM 49.9957 -5.3332 302° West 448 516 32,500 3,300 Level FlightAware UK
07:40AM 50.0020 -5.3370 302° West 431 496 34,000  Climbing FlightAware
07:41AM 50.0206 -5.3964 302° West 450 518 32,500 -2,760 Descending FlightAware UK
07:41AM 50.0392 -5.4439 301° West 452 520 32,500 3,600 Level FlightAware UK
07:41AM 50.0420 -5.4400 301° West 431 496 34,000  Climbing FlightAware
07:41AM 50.0640 -5.5074 301° West 450 518 32,500 -2,580 Descending FlightAware UK
07:42AM 50.0827 -5.5550 301° West 448 516 32,500 3,180 Level FlightAware UK
07:42AM 50.0890 -5.5620 301° West 431 496 34,000  Climbing FlightAware
07:42AM 50.1139 -5.6342 301° West 450 518 32,500 -2,400 Descending FlightAware UK
07:43AM 50.1326 -5.6818 302° West 448 516 32,500 4,500 Level FlightAware UK
07:43AM 50.1300 -5.6670 302° West 432 497 34,000  Climbing FlightAware
07:43AM 50.1512 -5.7296 302° West 450 518 32,500 -2,700 Descending FlightAware UK
07:43AM 50.1697 -5.7775 301° West 450 518 32,500 3,720 Level FlightAware UK
07:43AM 50.1710 -5.7750 301° West 432 497 34,000  Climbing FlightAware
07:44AM 50.1946 -5.8411 301° West 450 518 32,500 -2,520 Descending FlightAware UK
07:44AM 50.2133 -5.8890 301° West 452 520 32,500 3,300 Level FlightAware UK
07:44AM 50.2170 -5.8930 301° West 432 497 34,000  Climbing FlightAware
07:44AM 50.2380 -5.9523 301° West 452 520 32,500 -2,760 Descending FlightAware UK
07:45AM 50.2567 -6.0001 301° West 452 520 32,500 3,600 Level FlightAware UK
07:45AM 50.2570 -5.9980 301° West 432 497 34,000  Climbing FlightAware
07:45AM 50.2816 -6.0638 301° West 452 520 32,500  Descending FlightAware UK
07:45AM 50.2980 -6.1060 301° West 431 496 34,000  Climbing FlightAware
07:45AM 50.3063 -6.1276 301° West 450 518 32,500 -4,740 Descending FlightAware UK
07:46AM 50.3246 -6.1756 301° West 452 520 32,500  Level FlightAware UK
07:46AM 50.3429 -6.2235 301° West 452 520 32,500 3,420 Level FlightAware UK
07:46AM 50.3450 -6.2290 301° West 429 494 34,000  Climbing FlightAware
07:46AM 50.3674 -6.2872 301° West 452 520 32,500 -2,700 Descending FlightAware UK
07:47AM 50.3856 -6.3351 301° West 452 520 32,500 3,720 Level FlightAware UK
07:47AM 50.3830 -6.3300 301° West 428 493 34,000  Climbing FlightAware
07:47AM 50.4099 -6.3987 301° West 450 518 32,500 -2,520 Descending FlightAware UK
07:47AM 50.4280 -6.4464 301° West 450 518 32,500 3,300 Level FlightAware UK
07:47AM 50.4270 -6.4480 301° West 426 490 34,000  Climbing FlightAware
07:48AM 50.4522 -6.5098 301° West 450 518 32,500 -2,760 Descending FlightAware UK
07:48AM 50.4703 -6.5573 301° West 452 520 32,500 3,600 Level FlightAware UK
07:48AM 50.4680 -6.5560 301° West 424 488 34,000  Climbing FlightAware
07:48AM 50.4940 -6.6206 301° West 452 520 32,500 -2,580 Descending FlightAware UK
07:49AM 50.5119 -6.6681 301° West 450 518 32,500 3,180 Level FlightAware UK
07:49AM 50.5110 -6.6730 301° West 423 487 34,000  Climbing FlightAware
07:49AM 50.5418 -6.7472 301° West 444 511 32,500 -2,400 Descending FlightAware UK
07:50AM 50.5595 -6.7947 300° West 444 511 32,500 3,600 Level FlightAware UK
07:50AM 50.5560 -6.7940 300° West 422 486 34,000  Climbing FlightAware
07:50AM 50.5831 -6.8582 300° West 446 513 32,500 -2,580 Descending FlightAware UK
07:50AM 50.6008 -6.9059 300° West 446 513 32,500 3,900 Level FlightAware UK
07:50AM 50.5970 -6.9050 300° West 422 486 34,000  Climbing FlightAware
07:51AM 50.6243 -6.9695 300° West 446 513 32,500 -2,460 Descending FlightAware UK
07:51AM 50.6419 -7.0173 300° West 444 511 32,500 4,260 Level FlightAware UK
07:51AM 50.6330 -7.0050 300° West 422 486 34,000  Climbing FlightAware
07:51AM 50.6593 -7.0647 300° West 446 513 32,500 -2,760 Descending FlightAware UK
07:52AM 50.6768 -7.1126 300° West 446 513 32,500 3,600 Level FlightAware UK
07:52AM 50.6740 -7.1180 300° West 422 486 34,000  Climbing FlightAware
07:52AM 50.7119 -7.2086 300° West 446 513 32,500  Descending FlightAware UK
07:52AM 50.7190 -7.2420 300° West 422 486 34,000  Climbing FlightAware
07:53AM 50.7471 -7.3046 300° West 448 516 32,500 -2,400 Descending FlightAware UK
07:53AM 50.7647 -7.3525 300° West 446 513 32,500  Level FlightAware UK
07:53AM 50.7822 -7.4006 300° West 446 513 32,500  Level FlightAware UK
07:54AM 50.7999 -7.4485 300° West 446 513 32,500  Level FlightAware UK
07:54AM 50.8233 -7.5125 300° West 448 516 32,500  Level FlightAware UK
07:54AM 50.8409 -7.5605 300° West 446 513 32,500 3,300 Level FlightAware UK
07:54AM 50.8420 -7.5800 300° West 421 484 34,000  Climbing FlightAware
07:55AM 50.8642 -7.6246 300° West 446 513 32,500 -2,760 Descending FlightAware UK
07:55AM 50.8815 -7.6729 300° West 446 513 32,500 3,000 Level FlightAware UK
07:55AM 50.8840 -7.6980 300° West 421 484 34,000  Climbing FlightAware
07:56AM 50.9103 -7.7533 300° West 448 516 32,500 -2,520 Descending FlightAware UK
07:56AM 50.9277 -7.8015 300° West 448 516 32,500  Level FlightAware UK
07:56AM 50.9451 -7.8497 300° West 448 516 32,500 2,640 Level FlightAware UK
07:56AM 50.9510 -7.8850 300° West 420 483 34,000  Climbing FlightAware
07:57AM 50.9798 -7.9460 300° West 450 518 32,500 -2,400 Descending FlightAware UK
07:57AM 50.9970 -7.9943 300° West 450 518 32,500 4,500 Level FlightAware UK
07:57AM 50.9880 -7.9890 300° West 419 482 34,000  Climbing FlightAware
07:57AM 51.0141 -8.0424 300° West 450 518 32,500 -2,700 Descending FlightAware UK
07:58AM 51.0308 -8.0910 299° West 450 518 32,500  Level FlightAware UK
07:58AM 51.0466 -8.1401 297° West 450 518 32,500 4,260 Level FlightAware UK
07:58AM 51.0310 -8.1190 297° West 414 476 34,000  Climbing FlightAware
07:58AM 51.0621 -8.1894 297° West 450 518 32,500 -2,760 Descending FlightAware UK
07:59AM 51.0773 -8.2382 296° West 448 516 32,500 3,600 Level FlightAware UK
07:59AM 51.0720 -8.2480 296° West 415 478 34,000  Climbing FlightAware
07:59AM 51.0980 -8.3037 296° West 444 511 32,500 -2,580 Descending FlightAware UK
07:59AM 51.1139 -8.3525 298° West 446 513 32,500 3,180 Level FlightAware UK
07:59AM 51.1120 -8.3700 298° West 416 479 34,000  Climbing FlightAware
08:00AM 51.1407 -8.4338 298° West 448 516 32,500 -2,400 Descending FlightAware UK
08:00AM 51.1567 -8.4826 298° West 448 516 32,500 4,500 Level FlightAware UK
08:00AM 51.1440 -8.4700 298° West 415 478 34,000  Climbing FlightAware
08:00AM 51.1726 -8.5315 298° West 448 516 32,500 -2,700 Descending FlightAware UK
08:01AM 51.1886 -8.5803 298° West 448 516 32,500 3,060 Level FlightAware UK
08:01AM 51.1870 -8.6020 298° West 411 473 34,000  Climbing FlightAware
08:01AM 51.2151 -8.6618 298° West 444 511 32,500 -2,460 Descending FlightAware UK
08:01AM 51.2310 -8.7108 297° West 444 511 32,500 4,260 Level FlightAware UK
08:01AM 51.2220 -8.7100 297° West 411 473 34,000  Climbing FlightAware
08:02AM 51.2468 -8.7598 297° West 442 509 32,500 -2,760 Descending FlightAware UK
08:02AM 51.2625 -8.8089 297° West 442 509 32,500 3,600 Level FlightAware UK
08:02AM 51.2560 -8.8160 297° West 411 473 34,000  Climbing FlightAware
08:02AM 51.2835 -8.8743 297° West 444 511 32,500 -2,580 Descending FlightAware UK
08:03AM 51.2992 -8.9236 297° West 444 511 32,500 3,900 Level FlightAware UK
08:03AM 51.2890 -8.9210 297° West 412 474 34,000  Climbing FlightAware
08:03AM 51.3201 -8.9895 297° West 444 511 32,500  Descending FlightAware UK
08:03AM 51.3190 -9.0140 297° West 413 475 34,000 1,080 Climbing FlightAware
08:04AM 51.3770 -9.2000 297° West 414 476 34,000  Level FlightAware
08:05AM 51.4110 -9.3090 297° West 414 476 34,000  Level FlightAware
08:06AM 51.4510 -9.4360 297° West 415 478 34,000  Level FlightAware
08:07AM 51.4860 -9.5500 296° West 416 479 34,000  Level FlightAware
08:07AM 51.5190 -9.6560 297° West 416 479 34,000  Level FlightAware
08:08AM 51.5570 -9.7810 296° West 416 479 34,000  Level FlightAware
08:09AM 51.5870 -9.8770 297° West 416 479 34,000  Level FlightAware
08:09AM 51.6310 -10.0220 296° West 416 479 34,000  Level FlightAware
08:10AM 51.6650 -10.1330 296° West 416 479 34,000  Level FlightAware
08:11AM 51.6950 -10.2310 296° West 415 478 34,000  Level FlightAware
08:11AM 51.7300 -10.3480 296° West 417 480 34,000  Level FlightAware
08:12AM 51.7790 -10.5140 296° West 416 479 34,000  Level FlightAware
08:13AM 51.8130 -10.6250 296° West 414 476 34,000  Level FlightAware
08:16AM 51.9021 -11.1016 287° West  Level Estimated
08:17AM 51.9376 -11.2954 287° West  Level Estimated
08:18AM 51.9728 -11.4895 286° West  Level Estimated
08:18AM 52.0540 -11.4420 286° West 402 463 34,000  Level FlightAware
08:19AM 52.0840 -11.5460 295° West 401 461 34,000 60 Level FlightAware
08:20AM 52.1340 -11.7200 295° West 398 458 34,100 180 Climbing FlightAware
08:20AM 52.1550 -11.7920 295° West 396 456 34,300 420 Climbing FlightAware
08:23AM 52.2358 -12.2585 286° West  Level Estimated
08:23AM 52.2740 -12.2160 286° West 398 458 35,400  Level FlightAware
08:24AM 52.3520 -12.4930 286° West 400 460 36,200 600 Climbing FlightAware
08:25AM 52.3337 -12.5698 286° West  Level Estimated
08:25AM 52.3910 -12.6350 294° West 404 465 36,900  Level FlightAware
08:26AM 52.4230 -12.7480 295° West 408 470 37,000 60 Climbing FlightAware
08:27AM 52.4580 -12.8800 294° West 414 476 37,000  Level FlightAware
08:28AM 52.4960 -13.0220 294° West 411 473 37,000  Level FlightAware
08:28AM 52.5340 -13.1690 293° West 414 476 37,000  Level FlightAware
08:29AM 52.5650 -13.2930 292° West 414 476 37,000  Level FlightAware
08:30AM 52.5890 -13.3920 292° West 414 476 37,000  Level FlightAware
08:31AM 52.6140 -13.4920 292° West 414 476 37,000  Level FlightAware
08:31AM 52.6380 -13.5910 292° West 414 476 37,000  Level FlightAware
08:32AM 52.6620 -13.6910 292° West 414 476 37,000  Level FlightAware
08:33AM 52.6870 -13.7900 293° West 414 476 37,000  Level FlightAware
08:33AM 52.7170 -13.9150 292° West 414 476 37,000  Level FlightAware
08:34AM 52.7420 -14.0150 292° West 414 476 37,000  Level FlightAware
08:35AM 52.7660 -14.1140 292° West 414 476 37,000  Level FlightAware
08:35AM 52.7900 -14.2140 292° West 414 476 37,000  Level FlightAware
08:36AM 52.8150 -14.3140 293° West 414 476 37,000  Level FlightAware
08:37AM 52.8450 -14.4390 292° West 414 476 37,000  Level FlightAware
08:38AM 52.8700 -14.5390 293° West 414 476 37,000  Level FlightAware
08:40AM 52.9264 -14.9346 283° West  Level Estimated
08:41AM 52.9545 -15.1362 283° West  Level Estimated
08:42AM 52.9823 -15.3380 283° West  Level Estimated
08:43AM 53.0097 -15.5395 283° West  Level Estimated
08:44AM 53.0368 -15.7414 283° West  Level Estimated
08:45AM 53.0635 -15.9435 282° West  Level Estimated
08:46AM 53.0899 -16.1458 282° West  Level Estimated
08:47AM 53.1159 -16.3484 282° West  Level Estimated
08:48AM 53.1416 -16.5513 282° West  Level Estimated
08:49AM 53.1668 -16.7526 282° West  Level Estimated
08:50AM 53.1915 -16.9542 282° West  Level Estimated
08:51AM 53.2160 -17.1559 282° West  Level Estimated
08:52AM 53.2401 -17.3580 281° West  Level Estimated
08:53AM 53.2639 -17.5602 281° West  Level Estimated
08:54AM 53.2873 -17.7626 281° West  Level Estimated
08:55AM 53.3104 -17.9653 281° West  Level Estimated
08:56AM 53.3331 -18.1682 281° West  Level Estimated
08:57AM 53.3555 -18.3713 281° West  Level Estimated
08:58AM 53.3775 -18.5747 280° West  Level Estimated
08:59AM 53.3992 -18.7782 280° West  Level Estimated
09:00AM 53.4206 -18.9819 280° West  Level Estimated
09:01AM 53.4416 -19.1859 280° West  Level Estimated
09:02AM 53.4622 -19.3900 280° West  Level Estimated
09:03AM 53.4826 -19.5944 280° West  Level Estimated
09:04AM 53.5025 -19.7989 279° West  Level Estimated
09:05AM 53.5221 -20.0036 279° West  Level Estimated
09:06AM 53.5414 -20.2085 279° West  Level Estimated
09:07AM 53.5603 -20.4136 279° West  Level Estimated
09:07AM 54.0000 -20.0000 274° West 431 496 37,000  Level ETMS Enhanced Traffic Management System
09:08AM 53.5788 -20.6189 279° West  Level Estimated
09:09AM 53.5971 -20.8244 279° West  Level Estimated
09:10AM 53.6149 -21.0300 278° West  Level Estimated
09:11AM 53.6324 -21.2358 278° West  Level Estimated
09:12AM 53.6496 -21.4418 278° West  Level Estimated
09:13AM 53.6664 -21.6479 278° West  Level Estimated
09:14AM 54.0567 -21.6296 273° West 431 496 37,000  Level FlightAware Transoceanic
09:15AM 54.0622 -21.8336 273° West 431 496 37,000  Level FlightAware Transoceanic
09:16AM 54.0674 -22.0376 272° West 431 496 37,000  Level FlightAware Transoceanic
09:17AM 54.0723 -22.2417 272° West 431 496 37,000  Level FlightAware Transoceanic
09:18AM 54.0768 -22.4458 272° West 431 496 37,000  Level FlightAware Transoceanic
09:19AM 54.0809 -22.6500 272° West 431 496 37,000  Level FlightAware Transoceanic
09:20AM 54.0847 -22.8542 272° West 431 496 37,000  Level FlightAware Transoceanic
09:21AM 54.0882 -23.0585 272° West 431 496 37,000  Level FlightAware Transoceanic
09:22AM 54.0913 -23.2628 271° West 431 496 37,000  Level FlightAware Transoceanic
09:23AM 54.0941 -23.4671 271° West 431 496 37,000  Level FlightAware Transoceanic
09:24AM 54.0965 -23.6714 271° West 431 496 37,000  Level FlightAware Transoceanic
09:25AM 54.0986 -23.8758 271° West 431 496 37,000  Level FlightAware Transoceanic
09:26AM 54.1003 -24.0802 271° West 431 496 37,000  Level FlightAware Transoceanic
09:27AM 54.1017 -24.2845 271° West 431 496 37,000  Level FlightAware Transoceanic
09:28AM 54.1027 -24.4890 270° West 431 496 37,000  Level FlightAware Transoceanic
09:29AM 54.1034 -24.6934 270° West 431 496 37,000  Level FlightAware Transoceanic
09:30AM 54.1038 -24.8978 270° West 431 496 37,000  Level FlightAware Transoceanic
09:31AM 54.1038 -25.1022 270° West 431 496 37,000  Level FlightAware Transoceanic
09:32AM 54.1034 -25.3066 270° West 431 496 37,000  Level FlightAware Transoceanic
09:33AM 54.1027 -25.5110 270° West 431 496 37,000  Level FlightAware Transoceanic
09:34AM 54.1017 -25.7155 269° West 431 496 37,000  Level FlightAware Transoceanic
09:35AM 54.1003 -25.9198 269° West 431 496 37,000  Level FlightAware Transoceanic
09:36AM 54.0986 -26.1242 269° West 431 496 37,000  Level FlightAware Transoceanic
09:37AM 54.0965 -26.3286 269° West 431 496 37,000  Level FlightAware Transoceanic
09:38AM 54.0941 -26.5329 269° West 431 496 37,000  Level FlightAware Transoceanic
09:39AM 54.0913 -26.7372 269° West 431 496 37,000  Level FlightAware Transoceanic
09:40AM 54.0882 -26.9415 268° West 431 496 37,000  Level FlightAware Transoceanic
09:41AM 54.0847 -27.1458 268° West 431 496 37,000  Level FlightAware Transoceanic
09:42AM 54.0809 -27.3500 268° West 431 496 37,000  Level FlightAware Transoceanic
09:43AM 54.0768 -27.5542 268° West 431 496 37,000  Level FlightAware Transoceanic
09:44AM 54.0723 -27.7583 268° West 431 496 37,000  Level FlightAware Transoceanic
09:45AM 54.0674 -27.9624 268° West 431 496 37,000  Level FlightAware Transoceanic
09:46AM 54.0622 -28.1664 267° West 431 496 37,000  Level FlightAware Transoceanic
09:47AM 54.0567 -28.3704 267° West 431 496 37,000  Level FlightAware Transoceanic
09:48AM 54.0508 -28.5743 267° West 431 496 37,000  Level FlightAware Transoceanic
09:49AM 54.0446 -28.7782 267° West 431 496 37,000  Level FlightAware Transoceanic
09:50AM 54.0380 -28.9820 267° West 431 496 37,000  Level FlightAware Transoceanic
09:51AM 54.0311 -29.1858 267° West 431 496 37,000  Level FlightAware Transoceanic
09:52AM 54.0238 -29.3894 266° West 431 496 37,000  Level FlightAware Transoceanic
09:53AM 54.0162 -29.5930 266° West 431 496 37,000  Level FlightAware Transoceanic
09:54AM 54.0083 -29.7966 266° West 431 496 37,000  Level FlightAware Transoceanic
09:55AM 53.9998 -30.0059 266° West  Level FlightAware Approximate
09:56AM 54.0005 -30.0117 274° West  Level FlightAware Approximate
09:57AM 54.0089 -30.2210 274° West  Level FlightAware Approximate
09:58AM 54.0170 -30.4304 274° West  Level FlightAware Approximate
09:59AM 54.0247 -30.6399 274° West  Level FlightAware Approximate
10:00AM 54.0320 -30.8495 273° West  Level FlightAware Approximate
10:01AM 54.0390 -31.0591 273° West  Level FlightAware Approximate
10:02AM 54.0456 -31.2688 273° West  Level FlightAware Approximate
10:03AM 54.0518 -31.4786 273° West  Level FlightAware Approximate
10:04AM 54.0578 -31.6884 273° West  Level FlightAware Approximate
10:04AM 54.0000 -30.0000 274° West 480 552 37,000  Level ETMS Enhanced Traffic Management System
10:05AM 54.0634 -31.8983 273° West  Level FlightAware Approximate
10:06AM 54.0686 -32.1082 273° West  Level FlightAware Approximate
10:07AM 54.0736 -32.3200 272° West  Level FlightAware Approximate
10:08AM 54.0781 -32.5318 272° West  Level FlightAware Approximate
10:09AM 54.0823 -32.7437 272° West  Level FlightAware Approximate
10:10AM 54.0860 -32.9556 272° West  Level FlightAware Approximate
10:11AM 54.0961 -33.6343 271° West 480 552 37,000  Level FlightAware Transoceanic
10:12AM 54.0984 -33.8618 271° West 480 552 37,000  Level FlightAware Transoceanic
10:13AM 54.1004 -34.0894 271° West 480 552 37,000  Level FlightAware Transoceanic
10:14AM 54.1019 -34.3171 271° West 480 552 37,000  Level FlightAware Transoceanic
10:15AM 54.1030 -34.5447 270° West 480 552 37,000  Level FlightAware Transoceanic
10:16AM 54.1036 -34.7724 270° West 480 552 37,000  Level FlightAware Transoceanic
10:17AM 54.1038 -35.0000 270° West 480 552 37,000  Level FlightAware Transoceanic
10:18AM 54.1036 -35.2276 270° West 480 552 37,000  Level FlightAware Transoceanic
10:19AM 54.1030 -35.4553 270° West 480 552 37,000  Level FlightAware Transoceanic
10:20AM 54.1019 -35.6829 269° West 480 552 37,000  Level FlightAware Transoceanic
10:21AM 54.1004 -35.9106 269° West 480 552 37,000  Level FlightAware Transoceanic
10:22AM 54.0984 -36.1382 269° West 480 552 37,000  Level FlightAware Transoceanic
10:23AM 54.0961 -36.3657 269° West 480 552 37,000  Level FlightAware Transoceanic
10:24AM 54.0933 -36.5933 269° West 480 552 37,000  Level FlightAware Transoceanic
10:25AM 54.0901 -36.8208 269° West 480 552 37,000  Level FlightAware Transoceanic
10:26AM 54.0864 -37.0483 268° West 480 552 37,000  Level FlightAware Transoceanic
10:27AM 54.0823 -37.2757 268° West 480 552 37,000  Level FlightAware Transoceanic
10:28AM 54.0778 -37.5031 268° West 480 552 37,000  Level FlightAware Transoceanic
10:29AM 54.0729 -37.7305 268° West 480 552 37,000  Level FlightAware Transoceanic
10:30AM 54.0675 -37.9577 268° West 480 552 37,000  Level FlightAware Transoceanic
10:31AM 54.0617 -38.1850 267° West 480 552 37,000  Level FlightAware Transoceanic
10:32AM 54.0555 -38.4121 267° West 480 552 37,000  Level FlightAware Transoceanic
10:33AM 54.0489 -38.6392 267° West 480 552 37,000  Level FlightAware Transoceanic
10:34AM 54.0418 -38.8662 267° West 480 552 37,000  Level FlightAware Transoceanic
10:35AM 54.0343 -39.0932 267° West 480 552 37,000  Level FlightAware Transoceanic
10:36AM 54.0263 -39.3200 267° West 480 552 37,000  Level FlightAware Transoceanic
10:37AM 54.0180 -39.5468 266° West 480 552 37,000  Level FlightAware Transoceanic
10:38AM 54.0092 -39.7734 266° West 480 552 37,000  Level FlightAware Transoceanic
10:39AM 54.0006 -39.9845 266° West  Level FlightAware Approximate
10:40AM 53.9917 -40.1956 266° West  Level FlightAware Approximate
10:41AM 53.9895 -40.1797 264° West  Level FlightAware Approximate
10:42AM 53.9769 -40.3901 264° West  Level FlightAware Approximate
10:42AM 54.0000 -40.0000 265° West 482 555 37,000  Level ETMS Enhanced Traffic Management System
10:43AM 53.9639 -40.6004 264° West  Level FlightAware Approximate
10:44AM 53.9505 -40.8105 264° West  Level FlightAware Approximate
10:45AM 53.9368 -41.0205 264° West  Level FlightAware Approximate
10:46AM 53.9227 -41.2309 264° West  Level FlightAware Approximate
10:47AM 53.9082 -41.4411 263° West  Level FlightAware Approximate
10:48AM 53.8673 -42.0349 263° West 482 555 37,000  Level FlightAware Transoceanic
10:49AM 53.8505 -42.2602 263° West 482 555 37,000  Level FlightAware Transoceanic
10:50AM 53.8332 -42.4853 262° West 482 555 37,000  Level FlightAware Transoceanic
10:51AM 53.8155 -42.7102 262° West 482 555 37,000  Level FlightAware Transoceanic
10:52AM 53.7974 -42.9348 262° West 482 555 37,000  Level FlightAware Transoceanic
10:53AM 53.7788 -43.1594 262° West 482 555 37,000  Level FlightAware Transoceanic
10:54AM 53.7599 -43.3837 262° West 482 555 37,000  Level FlightAware Transoceanic
10:55AM 53.7405 -43.6077 262° West 482 555 37,000  Level FlightAware Transoceanic
10:56AM 53.7207 -43.8316 261° West 482 555 37,000  Level FlightAware Transoceanic
10:57AM 53.7005 -44.0553 261° West 482 555 37,000  Level FlightAware Transoceanic
10:58AM 53.6799 -44.2788 261° West 482 555 37,000  Level FlightAware Transoceanic
10:59AM 53.6588 -44.5020 261° West 482 555 37,000  Level FlightAware Transoceanic
11:00AM 53.6373 -44.7250 261° West 482 555 37,000  Level FlightAware Transoceanic
11:01AM 53.6155 -44.9478 261° West 482 555 37,000  Level FlightAware Transoceanic
11:02AM 53.5932 -45.1704 260° West 482 555 37,000  Level FlightAware Transoceanic
11:03AM 53.5705 -45.3927 260° West 482 555 37,000  Level FlightAware Transoceanic
11:04AM 53.5474 -45.6147 260° West 482 555 37,000  Level FlightAware Transoceanic
11:05AM 53.5238 -45.8366 260° West 482 555 37,000  Level FlightAware Transoceanic
11:06AM 53.4999 -46.0582 260° West 482 555 37,000  Level FlightAware Transoceanic
11:07AM 53.4756 -46.2795 259° West 482 555 37,000  Level FlightAware Transoceanic
11:08AM 53.4508 -46.5006 259° West 482 555 37,000  Level FlightAware Transoceanic
11:09AM 53.4257 -46.7214 259° West 482 555 37,000  Level FlightAware Transoceanic
11:10AM 53.4001 -46.9419 259° West 482 555 37,000  Level FlightAware Transoceanic
11:11AM 53.3741 -47.1622 259° West 482 555 37,000  Level FlightAware Transoceanic
11:12AM 53.3478 -47.3822 259° West 482 555 37,000  Level FlightAware Transoceanic
11:13AM 53.3210 -47.6020 258° West 482 555 37,000  Level FlightAware Transoceanic
11:14AM 53.2938 -47.8214 258° West 482 555 37,000  Level FlightAware Transoceanic
11:15AM 53.2662 -48.0406 258° West 482 555 37,000  Level FlightAware Transoceanic
11:16AM 53.2382 -48.2595 258° West 482 555 37,000  Level FlightAware Transoceanic
11:17AM 53.2098 -48.4781 258° West 482 555 37,000  Level FlightAware Transoceanic
11:18AM 53.1810 -48.6964 258° West 482 555 37,000  Level FlightAware Transoceanic
11:19AM 53.1519 -48.9144 257° West 482 555 37,000  Level FlightAware Transoceanic
11:20AM 53.1223 -49.1322 257° West 482 555 37,000  Level FlightAware Transoceanic
11:21AM 53.0923 -49.3496 257° West 482 555 37,000  Level FlightAware Transoceanic
11:22AM 53.0619 -49.5667 257° West 482 555 37,000  Level FlightAware Transoceanic
11:23AM 53.0312 -49.7835 257° West 482 555 37,000  Level FlightAware Transoceanic
11:24AM 53.0022 -49.9850 257° West  Level FlightAware Approximate
11:25AM 52.9728 -50.1863 256° West  Level FlightAware Approximate
11:26AM 52.9612 -50.1641 249° West  Level FlightAware Approximate
11:26AM 53.0000 -50.0000 250° West 463 533 37,000  Level ETMS Enhanced Traffic Management System
11:27AM 52.9154 -50.3564 248° West  Level FlightAware Approximate
11:28AM 52.8692 -50.5484 248° West  Level FlightAware Approximate
11:28AM 52.8500 -50.5667 249° West 410 472 37,000  Level Gander Center
11:29AM 52.8229 -50.7395 248° West  Level FlightAware Approximate
11:29AM 52.8000 -50.7667 248° West 480 552 37,000  Level Gander Center
11:30AM 52.7762 -50.9302 248° West  Level FlightAware Approximate
11:30AM 52.7500 -50.9833 249° West 480 552 37,000  Level Gander Center
11:31AM 52.7292 -51.1204 248° West  Level FlightAware Approximate
11:31AM 52.7000 -51.1833 248° West 480 552 37,000  Level Gander Center
11:32AM 52.6433 -51.5993 249° West 463 533 37,000  Level FlightAware Transoceanic
11:32AM 52.6667 -51.3833 255° West 480 552 37,000  Level Gander Center
11:33AM 52.5972 -51.7974 249° West 463 533 37,000  Level FlightAware Transoceanic
11:33AM 52.6167 -51.6000 249° West 480 552 37,000  Level Gander Center
11:34AM 52.5667 -51.8333 251° West 450 518 37,000  Level Gander Center
11:35AM 52.5167 -52.0333 248° West 480 552 37,000  Level Gander Center
11:36AM 52.4667 -52.2333 248° West 480 552 37,000  Level Gander Center
11:37AM 52.4333 -52.4333 255° West 480 552 37,000  Level Gander Center
11:37AM 52.3833 -52.5500 235° Southwest 490 564 37,000  Level Gander Center
11:38AM 52.3833 -52.6333 270° West 490 564 37,000  Level Gander Center
11:38AM 52.3500 -52.7500 245° Southwest 490 564 37,000  Level Gander Center
11:39AM 52.3000 -52.9500 248° West 490 564 37,000  Level Gander Center
11:40AM 52.2833 -53.0500 255° West 490 564 37,000  Level Gander Center
11:40AM 52.2500 -53.1667 245° Southwest 500 575 37,000  Level Gander Center
11:41AM 52.2000 -53.3667 248° West 480 552 37,000  Level Gander Center
11:42AM 52.1667 -53.4500 237° Southwest 490 564 37,000  Level Gander Center
11:43AM 52.1167 -53.6833 251° West 490 564 37,000  Level Gander Center
11:43AM 52.0833 -53.7667 237° Southwest 480 552 37,000  Level Gander Center
11:44AM 52.0333 -53.9833 250° West 480 552 37,000  Level Gander Center
11:45AM 52.0000 -54.0833 242° Southwest 480 552 37,000  Level Gander Center
11:45AM 51.9833 -54.1667 252° West 480 552 37,000  Level Gander Center
11:46AM 51.9167 -54.3667 242° Southwest 480 552 37,000  Level Gander Center
11:47AM 51.8667 -54.5667 248° West 490 564 37,000  Level Gander Center
11:48AM 51.8333 -54.6667 242° Southwest 480 552 37,000  Level Gander Center
11:49AM 51.8000 -54.8667 255° West 490 564 37,000  Level Gander Center
11:50AM 51.7333 -55.0667 242° Southwest 490 564 37,000  Level Gander Center
11:51AM 51.6833 -55.2667 248° West 490 564 37,000  Level Gander Center
11:52AM 51.6167 -55.4833 244° Southwest 490 564 37,100 240 Climbing Gander Center
11:53AM 51.5667 -55.6833 248° West 480 552 37,500 360 Climbing Gander Center
11:53AM 51.5500 -55.7667 252° West 490 564 37,700 300 Climbing Gander Center
11:54AM 51.4833 -55.9667 242° Southwest 490 564 38,000 120 Climbing Gander Center
11:55AM 51.4333 -56.1833 250° West 500 575 38,000  Level Gander Center
11:56AM 51.4000 -56.2667 237° Southwest 500 575 38,000  Level Gander Center
11:56AM 51.3667 -56.3833 245° Southwest 500 575 38,000  Level Gander Center
11:57AM 51.3167 -56.5667 246° West 500 575 38,000  Level Gander Center
11:58AM 51.2500 -56.7833 244° Southwest 490 564 38,000  Level Gander Center
11:59AM 51.2167 -56.8667 237° Southwest 490 564 38,000  Level Gander Center
12:00PM 51.1667 -57.0667 248° West 490 564 38,000  Level Gander Center
12:01PM 51.1000 -57.2667 242° Southwest 490 564 38,000  Level Gander Center
12:02PM 51.0500 -57.4500 247° West 500 575 38,000  Level Gander Center
12:03PM 50.9833 -57.6667 244° Southwest 500 575 38,000  Level Gander Center
12:03PM 50.9500 -57.7500 238° Southwest 500 575 38,000  Level Gander Center
12:04PM 50.8833 -57.9667 244° Southwest 500 575 38,000  Level Gander Center
12:05PM 50.8667 -58.0500 252° West 500 575 38,000  Level Gander Center
12:06PM 50.8000 -58.2333 240° Southwest 500 575 38,000  Level Gander Center
12:07PM 50.7333 -58.4500 244° Southwest 500 575 38,000  Level Gander Center
12:08PM 50.6667 -58.6500 242° Southwest 510 587 38,000  Level Gander Center
12:09PM 50.6000 -58.8667 244° Southwest 510 587 38,000  Level Gander Center
12:10PM 50.5333 -59.0500 240° Southwest 520 598 38,000  Level Gander Center
12:10PM 50.4833 -59.2167 245° Southwest 520 598 38,000  Level Moncton Center
12:11PM 50.4667 -59.2667 242° Southwest 520 598 38,000  Level Gander Center
12:12PM 50.4000 -59.4667 242° Southwest 520 598 38,000  Level Gander Center
12:13PM 50.3500 -59.6500 247° West 520 598 38,000  Level Gander Center
12:14PM 50.2667 -59.8667 239° Southwest 520 598 38,000  Level Gander Center
12:14PM 50.2167 -60.0000 240° Southwest 520 598 38,000  Level Moncton Center
12:16PM 50.1333 -60.2667 244° Southwest 520 598 38,000  Level Gander Center
12:17PM 50.0667 -60.4500 241° Southwest 520 598 38,000  Level Gander Center
12:18PM 49.9833 -60.6500 237° Southwest 520 598 38,000  Level Gander Center
12:19PM 49.9333 -60.8333 247° West 510 587 38,000  Level Gander Center
12:19PM 49.8833 -61.0000 245° Southwest 520 598 38,000  Level Moncton Center
12:20PM 49.8000 -61.2000 237° Southwest 510 587 38,000  Level Moncton Center
12:21PM 49.7833 -61.2500 243° Southwest 520 598 38,000  Level Gander Center
12:22PM 49.7167 -61.4333 241° Southwest 520 598 38,000  Level Gander Center
12:23PM 49.6500 -61.6500 245° Southwest 510 587 38,000  Level Gander Center
12:24PM 49.5833 -61.8167 238° Southwest 510 587 38,000  Level Gander Center
12:24PM 49.5333 -61.9667 243° Southwest 510 587 38,000  Level Moncton Center
12:26PM 49.4333 -62.2000 237° Southwest 520 598 38,000  Level Gander Center
12:27PM 49.3667 -62.3833 241° Southwest 520 598 38,000  Level Gander Center
12:28PM 49.3000 -62.5833 243° Southwest 510 587 38,000  Level Gander Center
12:29PM 49.2167 -62.8000 240° Southwest 520 598 38,000  Level Gander Center
12:30PM 49.1500 -62.9667 239° Southwest 500 575 38,000  Level Gander Center
12:30PM 49.1000 -63.1167 243° Southwest 520 598 38,000  Level Moncton Center
12:31PM 49.0833 -63.1667 243° Southwest 520 598 38,000  Level Gander Center
12:32PM 49.0167 -63.3500 241° Southwest 520 598 38,000  Level Gander Center
12:32PM 48.9500 -63.5000 236° Southwest 520 598 38,000  Level Moncton Center
12:33PM 48.8667 -63.6833 235° Southwest 520 598 38,000  Level Moncton Center
12:34PM 48.8000 -63.8667 241° Southwest 520 598 38,000  Level Moncton Center
12:35PM 48.7167 -64.0667 238° Southwest 530 610 38,000  Level Moncton Center
12:36PM 48.6500 -64.2500 241° Southwest 520 598 38,000  Level Moncton Center
12:37PM 48.5667 -64.4500 238° Southwest 510 587 38,000  Level Moncton Center
12:38PM 48.5000 -64.6167 239° Southwest 510 587 38,000  Level Moncton Center
12:39PM 48.4333 -64.8000 241° Southwest 510 587 38,000  Level Moncton Center
12:40PM 48.3500 -64.9833 236° Southwest 510 587 38,000  Level Moncton Center
12:41PM 48.2833 -65.1500 239° Southwest 510 587 38,000  Level Moncton Center
12:42PM 48.2000 -65.3500 238° Southwest 510 587 38,000  Level Moncton Center
12:43PM 48.1833 -65.4000 243° Southwest 510 587 38,000  Level Gander Center
12:44PM 48.1167 -65.5667 239° Southwest 510 587 38,000  Level Gander Center
12:45PM 48.0167 -65.7500 231° Southwest 510 587 38,000  Level Gander Center
12:46PM 47.9500 -65.9167 239° Southwest 510 587 38,000  Level Gander Center
12:46PM 47.8833 -66.0667 237° Southwest 510 587 38,000  Level Moncton Center
12:47PM 47.8167 -66.2500 242° Southwest 510 587 38,000  Level Moncton Center
12:48PM 47.7500 -66.4167 239° Southwest 500 575 38,000  Level Moncton Center
12:49PM 47.6833 -66.6167 244° Southwest 500 575 38,000  Level Moncton Center
12:56PM 47.2240 -67.7980 244° Southwest 491 565 38,000  Level FlightAware
12:57PM 47.1940 -67.9080 248° West 491 565 38,000  Level FlightAware
12:58PM 47.1560 -68.0490 248° West 491 565 38,000  Level FlightAware
12:58PM 47.1190 -68.1860 248° West 490 564 38,000  Level FlightAware
12:59PM 47.0850 -68.3100 248° West 488 562 38,000  Level FlightAware
01:00PM 47.0510 -68.4340 248° West 488 562 38,000  Level FlightAware
01:00PM 47.0130 -68.5700 248° West 487 560 38,000  Level FlightAware
01:01PM 46.9780 -68.6940 248° West 487 560 38,000  Level FlightAware
01:02PM 46.9400 -68.8280 247° West 486 559 38,000  Level FlightAware
01:03PM 46.9060 -68.9510 248° West 486 559 38,000  Level FlightAware
01:03PM 46.8750 -69.0580 247° West 486 559 38,000  Level FlightAware
01:04PM 46.8333 -69.1667 247° West 490 564 38,000  Level Gander Center
01:04PM 46.8167 -69.2667 256° West 480 552 38,000  Level Montreal Center
01:05PM 46.7703 -69.4631 251° West 484 557 38,000  Level Boston Center
01:06PM 46.7208 -69.6444 248° West 484 557 38,000  Level Boston Center
01:07PM 46.6686 -69.8194 247° West 484 557 38,000  Level Boston Center
01:08PM 46.6161 -69.9969 247° West 484 557 38,000  Level Boston Center
01:09PM 46.5500 -70.1667 241° Southwest 470 541 38,000  Level Montreal Center
01:10PM 46.4833 -70.3333 240° Southwest 470 541 38,000  Level Montreal Center
01:11PM 46.4500 -70.5167 255° West 470 541 38,000  Level Montreal Center
01:12PM 46.3833 -70.6833 240° Southwest 470 541 38,000  Level Montreal Center
01:13PM 46.3500 -70.8667 255° West 470 541 38,000  Level Montreal Center
01:14PM 46.2833 -71.0333 240° Southwest 470 541 38,000  Level Montreal Center
01:15PM 46.2167 -71.1833 237° Southwest 470 541 38,000 -120 Level Montreal Center
01:16PM 46.1833 -71.3833 257° West 470 541 37,800 -600 Descending Montreal Center
01:17PM 46.1167 -71.5333 237° Southwest 470 541 36,800 -1,260 Descending Montreal Center
01:18PM 46.0667 -71.7167 249° West 460 529 35,300 -1,500 Descending Montreal Center
01:19PM 46.0167 -71.8833 247° West 460 529 33,900 -2,400 Descending Montreal Center
01:25PM 45.7290 -72.8640 247° West 434 499 19,000 -2,640 Descending FlightAware
01:26PM 45.7170 -72.9800 262° West 432 497 16,900 -2,940 Descending FlightAware
01:27PM 45.7030 -73.1060 261° West 422 486 14,900 -1,980 Descending FlightAware
01:27PM 45.6700 -73.2030 244° Southwest 395 455 14,100 -1,740 Descending FlightAware
01:28PM 45.6320 -73.2900 238° Southwest 383 441 12,600 -2,580 Descending FlightAware
01:29PM 45.5920 -73.3800 238° Southwest 357 411 10,500 -2,520 Descending FlightAware
01:29PM 45.5680 -73.4290 235° Southwest 323 372 9,700 -1,800 Descending FlightAware
01:30PM 45.5390 -73.4730 227° Southwest 297 342 8,900 -1,680 Descending FlightAware
01:30PM 45.5150 -73.5060 224° Southwest 294 338 8,200 -1,380 Descending FlightAware
01:30PM 45.4960 -73.5310 223° Southwest 285 328 7,900 -720 Descending FlightAware
01:31PM 45.4710 -73.5640 223° Southwest 271 312 7,700 -360 Descending FlightAware
01:31PM 45.4490 -73.5920 222° Southwest 251 289 7,600 -480 Descending FlightAware
01:31PM 45.4360 -73.6090 223° Southwest 242 278 7,400 -840 Descending FlightAware
01:32PM 45.4130 -73.6410 224° Southwest 234 269 7,000 -840 Descending FlightAware
01:32PM 45.4020 -73.6560 224° Southwest 233 268 6,800 -1,380 Descending FlightAware
01:33PM 45.3810 -73.6830 222° Southwest 234 269 6,100 -1,500 Descending FlightAware
01:33PM 45.3700 -73.6970 222° Southwest 234 269 5,800 -1,200 Descending FlightAware
01:33PM 45.3460 -73.7290 223° Southwest 231 266 5,200 -1,320 Descending FlightAware
01:34PM 45.3250 -73.7570 223° Southwest 229 264 4,600 -1,200 Descending FlightAware
01:34PM 45.3030 -73.7860 223° Southwest 227 261 4,100 -1,140 Descending FlightAware
01:35PM 45.2840 -73.8110 223° Southwest 225 259 3,600 -600 Descending FlightAware
01:35PM 45.2630 -73.8380 222° Southwest 207 238 3,600  Level FlightAware
01:36PM 45.2490 -73.8570 224° Southwest 206 237 3,600  Level FlightAware
01:36PM 45.2280 -73.8830 221° Southwest 204 235 3,600  Level FlightAware
01:37PM 45.2110 -73.9050 222° Southwest 204 235 3,600  Level FlightAware
01:37PM 45.1930 -73.9310 226° Southwest 205 236 3,600  Level FlightAware
01:37PM 45.1900 -73.9430 250° West 206 237 3,600 -180 Level FlightAware
01:38PM 45.2010 -73.9790 293° West 207 238 3,500 -420 Descending FlightAware
01:38PM 45.2200 -74.0060 315° West 204 235 3,200 -720 Descending FlightAware
01:38PM 45.2360 -74.0150 338° Northwest 195 224 3,000 -480 Descending FlightAware
01:39PM 45.2550 -74.0100 10° North 176 203 2,900 -360 Descending FlightAware
01:39PM 45.2790 -74.0000 16° North 169 194 2,700 -240 Descending FlightAware
01:40PM 45.2950 -73.9860 32° Northeast 160 184 2,700 -180 Level FlightAware
01:40PM 45.3030 -73.9750 44° Northeast 162 186 2,600 -180 Descending FlightAware
01:40PM 45.3190 -73.9550 41° Northeast 162 186 2,600  Level FlightAware
01:41PM 45.3330 -73.9350 45° Northeast 162 186 2,600  Level FlightAware
01:41PM 45.3410 -73.9250 41° Northeast 162 186 2,600 -720 Level FlightAware
01:42PM 45.3580 -73.9030 42° Northeast 162 186 2,100 -900 Descending FlightAware
01:42PM 45.3720 -73.8840 44° Northeast 162 186 1,800 -900 Descending FlightAware
01:42PM 45.3890 -73.8620 42° Northeast 160 184 1,300 -840 Descending FlightAware
01:43PM 45.4040 -73.8430 42° Northeast 156 180 1,000 -780 Descending FlightAware
01:43PM 45.4170 -73.8260 43° Northeast 140 161 600 -900 Descending FlightAware
01:44PM 45.4240 -73.8160 45° Northeast 127 146 400 -600 Descending FlightAware
01:44PM 45.4350 -73.8020 42° Northeast 128 147 200 -480 Descending FlightAware
01:45PM 45.4470 -73.7860 43° Northeast 129 148 -420 Descending FlightAware